Time;durP1;ratioP1;P1;durP2;ratioP2;P2;SDS_P1;SDS_P2;PMS_P1;PMS_P2;Temp;Humidity;BMP_temperature;BMP_pressure;BME280_temperature;BME280_humidity;BME280_pressure;Samples;Min_cycle;Max_cycle;Signal;HPM_P1;HPM_P2
2021/08/15 00:01:21;;;;;;;13.57;7.88;;;;;;;17.77;65.16;99992.97;5054586;28;20025;-49
2021/08/15 00:03:48;;;;;;;21.27;8.40;;;;;;;17.93;65.37;100012.94;5054829;28;20032;-48
2021/08/15 00:06:13;;;;;;;15.02;8.35;;;;;;;17.91;65.21;100018.53;5054717;28;20484;-52
2021/08/15 00:08:39;;;;;;;14.55;7.97;;;;;;;17.89;65.22;100015.16;5054617;28;20028;-48
2021/08/15 00:11:05;;;;;;;18.27;7.97;;;;;;;17.87;65.92;100021.72;5054609;28;20119;-53
2021/08/15 00:13:30;;;;;;;14.82;7.95;;;;;;;17.81;65.47;100012.41;5054685;28;20016;-53
2021/08/15 00:15:56;;;;;;;15.60;7.72;;;;;;;17.81;65.91;100009.69;5054003;28;20031;-53
2021/08/15 00:18:21;;;;;;;15.35;7.25;;;;;;;17.80;65.74;100016.13;5054497;28;20033;-51
2021/08/15 00:20:47;;;;;;;13.43;8.13;;;;;;;17.78;65.22;100007.31;5054772;28;20479;-47
2021/08/15 00:23:12;;;;;;;13.73;7.43;;;;;;;17.79;65.83;100003.59;5053647;28;20057;-50
2021/08/15 00:25:38;;;;;;;12.85;7.68;;;;;;;17.79;64.92;100009.03;5054392;28;20461;-48
2021/08/15 00:28:04;;;;;;;11.50;7.38;;;;;;;17.80;65.04;100005.28;5053905;28;20049;-52
2021/08/15 00:30:29;;;;;;;13.32;7.70;;;;;;;17.81;64.81;100000.75;5054380;28;20446;-52
2021/08/15 00:32:55;;;;;;;12.45;7.28;;;;;;;17.81;65.72;100012.41;5054008;28;20050;-49
2021/08/15 00:35:20;;;;;;;15.60;7.63;;;;;;;17.85;64.46;99997.53;5053643;28;20370;-48
2021/08/15 00:37:46;;;;;;;10.43;7.50;;;;;;;17.87;64.72;99997.34;5054177;28;20029;-51
2021/08/15 00:40:11;;;;;;;13.98;7.72;;;;;;;17.89;64.17;99992.63;5054337;28;20061;-50
2021/08/15 00:42:38;;;;;;;14.63;8.20;;;;;;;17.91;64.19;99999.56;5053406;28;20049;-56
2021/08/15 00:45:04;;;;;;;13.07;7.97;;;;;;;17.91;63.95;99999.56;5053931;28;20039;-54
2021/08/15 00:47:32;;;;;;;11.73;7.20;;;;;;;17.96;64.07;99998.22;5053652;28;20536;-51
2021/08/15 00:49:59;;;;;;;11.57;6.90;;;;;;;17.90;64.30;99989.75;5053111;28;20083;-49
2021/08/15 00:52:25;;;;;;;12.85;7.65;;;;;;;17.89;63.71;99988.06;5053703;28;20025;-51
2021/08/15 00:54:50;;;;;;;9.65;6.97;;;;;;;17.92;62.81;99993.13;5053647;28;20492;-57
2021/08/15 00:57:16;;;;;;;10.63;7.05;;;;;;;17.95;62.96;99986.53;5054024;28;20029;-56
2021/08/15 00:59:44;;;;;;;11.80;7.20;;;;;;;17.97;63.13;99980.94;5052464;28;20037;-54
2021/08/15 01:02:11;;;;;;;11.07;7.07;;;;;;;17.92;63.20;99982.31;5053100;28;20035;-48
2021/08/15 01:04:39;;;;;;;10.02;7.03;;;;;;;17.88;63.93;99978.25;5053745;28;20029;-53
2021/08/15 01:07:05;;;;;;;11.30;7.03;;;;;;;17.87;64.19;99978.41;5052691;28;20120;-51
2021/08/15 01:09:31;;;;;;;12.38;7.65;;;;;;;17.88;62.82;99975.53;5053136;28;20025;-50
2021/08/15 01:11:56;;;;;;;13.10;6.90;;;;;;;17.88;62.82;99969.25;5053033;28;20056;-52
2021/08/15 01:14:22;;;;;;;8.15;6.22;;;;;;;17.93;62.78;99967.75;5053247;28;20029;-54
2021/08/15 01:16:47;;;;;;;10.65;6.35;;;;;;;18.01;61.92;99969.66;5053519;28;20033;-54
2021/08/15 01:19:14;;;;;;;9.27;6.45;;;;;;;17.98;62.04;99978.09;5053512;28;20032;-54
2021/08/15 01:21:46;;;;;;;11.90;6.68;;;;;;;18.03;61.83;99983.00;5053029;28;20028;-49
2021/08/15 01:24:13;;;;;;;9.32;6.07;;;;;;;17.98;61.89;99969.97;5052765;28;20029;-52
2021/08/15 01:26:40;;;;;;;12.15;6.65;;;;;;;17.99;61.86;99979.78;5052836;28;20033;-50
2021/08/15 01:29:05;;;;;;;8.68;6.15;;;;;;;17.94;62.28;99969.44;5053291;28;20041;-50
2021/08/15 01:31:31;;;;;;;12.43;7.60;;;;;;;17.93;62.41;99978.56;5052908;28;20151;-52
2021/08/15 01:33:56;;;;;;;9.75;6.50;;;;;;;17.89;63.26;99970.94;5052752;28;20115;-52
2021/08/15 01:36:22;;;;;;;8.40;6.60;;;;;;;17.87;62.42;99968.44;5052891;28;20399;-55
2021/08/15 01:38:50;;;;;;;7.72;6.05;;;;;;;17.85;61.86;99962.34;5053214;28;20491;-47
2021/08/15 01:41:15;;;;;;;9.55;6.97;;;;;;;17.87;62.00;99978.41;5052577;28;20036;-47
2021/08/15 01:44:01;;;;;;;10.65;6.43;;;;;;;17.96;62.25;99971.13;5052972;28;20033;-49
2021/08/15 01:46:32;;;;;;;11.85;6.07;;;;;;;17.89;61.96;99974.53;5053205;28;20029;-53
2021/08/15 01:48:59;;;;;;;9.10;5.68;;;;;;;17.81;62.30;99974.50;5052683;28;20422;-50
2021/08/15 01:51:25;;;;;;;9.95;6.22;;;;;;;17.80;62.13;99983.63;5052297;28;20032;-52
2021/08/15 01:53:54;;;;;;;9.05;5.97;;;;;;;17.83;62.03;99977.03;5053021;28;20385;-51
2021/08/15 01:56:20;;;;;;;8.32;6.07;;;;;;;17.80;62.49;99983.63;5053049;28;20163;-50
2021/08/15 01:58:45;;;;;;;12.98;8.48;;;;;;;17.80;62.34;99967.38;5052379;28;20059;-54
2021/08/15 02:01:16;;;;;;;10.82;7.43;;;;;;;17.87;62.16;99979.25;5052082;28;20465;-54
2021/08/15 02:03:42;;;;;;;10.00;6.18;;;;;;;17.84;62.76;99968.72;5052306;28;20036;-55
2021/08/15 02:06:08;;;;;;;11.15;7.07;;;;;;;17.84;62.43;99971.44;5052257;28;20025;-51
2021/08/15 02:08:33;;;;;;;10.93;6.53;;;;;;;17.85;62.59;99973.16;5052342;28;20056;-52
2021/08/15 02:10:58;;;;;;;8.75;6.22;;;;;;;17.88;62.59;99964.69;5051042;28;20457;-53
2021/08/15 02:13:24;;;;;;;9.40;6.43;;;;;;;17.91;62.59;99971.63;5052524;28;20461;-53
2021/08/15 02:15:49;;;;;;;10.82;7.03;;;;;;;17.91;62.78;99967.06;5052273;28;20456;-49
2021/08/15 02:18:15;;;;;;;13.13;6.05;;;;;;;17.92;63.11;99966.06;5052251;28;20044;-52
2021/08/15 02:20:40;;;;;;;10.02;6.70;;;;;;;17.87;63.04;99956.72;5051812;28;20025;-53
2021/08/15 02:23:06;;;;;;;11.95;7.00;;;;;;;17.93;62.47;99964.19;5051626;28;20033;-52
2021/08/15 02:25:32;;;;;;;10.40;7.85;;;;;;;18.01;62.22;99974.16;5052246;28;20132;-53
2021/08/15 02:27:57;;;;;;;14.23;8.40;;;;;;;18.03;62.29;99967.63;5051932;28;20052;-50
2021/08/15 02:30:25;;;;;;;9.77;7.32;;;;;;;18.12;61.00;99965.75;5051919;28;20033;-52
2021/08/15 02:32:51;;;;;;;12.40;6.88;;;;;;;18.19;60.91;99964.06;5051628;28;20444;-52
2021/08/15 02:35:17;;;;;;;11.50;6.03;;;;;;;18.22;60.76;99960.16;5051621;28;20037;-54
2021/08/15 02:37:47;;;;;;;8.60;6.35;;;;;;;18.34;60.75;99966.09;5051476;28;20033;-52
2021/08/15 02:40:14;;;;;;;9.05;7.13;;;;;;;18.44;60.50;99963.16;5049896;28;20021;-54
2021/08/15 02:42:43;;;;;;;10.63;6.75;;;;;;;18.56;60.46;99960.94;5050173;28;20029;-50
2021/08/15 02:45:12;;;;;;;13.07;6.28;;;;;;;18.63;59.81;99960.06;5051447;28;20069;-50
2021/08/15 02:47:38;;;;;;;10.68;5.97;;;;;;;18.71;59.76;99964.63;5051567;28;20033;-51
2021/08/15 02:50:04;;;;;;;8.63;6.22;;;;;;;18.79;59.86;99961.06;5051476;28;20037;-50
2021/08/15 02:52:30;;;;;;;10.10;5.85;;;;;;;18.87;58.83;99952.06;5051349;28;20519;-55
2021/08/15 02:54:55;;;;;;;8.65;5.55;;;;;;;18.96;58.67;99953.69;5051535;28;20063;-50
2021/08/15 02:57:21;;;;;;;8.93;6.15;;;;;;;19.03;58.13;99953.88;5051286;28;20037;-49
2021/08/15 02:59:46;;;;;;;9.25;6.15;;;;;;;19.08;58.61;99957.75;5051362;28;20029;-52
2021/08/15 03:02:14;;;;;;;9.38;6.10;;;;;;;19.16;58.54;99962.28;5050848;28;20033;-51
2021/08/15 03:04:40;;;;;;;10.60;5.82;;;;;;;19.14;57.98;99948.03;5051173;28;20430;-49
2021/08/15 03:07:06;;;;;;;11.85;5.95;;;;;;;19.22;58.01;99949.88;5051524;28;20119;-51
2021/08/15 03:09:32;;;;;;;7.70;5.70;;;;;;;19.28;57.64;99945.63;5051096;28;20054;-52
2021/08/15 03:11:57;;;;;;;7.70;5.45;;;;;;;19.35;57.46;99955.59;5051202;28;20029;-50
2021/08/15 03:14:23;;;;;;;10.68;5.35;;;;;;;19.41;57.11;99958.59;5051572;28;20453;-49
2021/08/15 03:16:48;;;;;;;10.63;5.60;;;;;;;19.45;57.39;99952.66;5051446;28;20025;-51
2021/08/15 03:19:14;;;;;;;9.98;5.78;;;;;;;19.50;56.86;99949.38;5051070;28;20037;-52
2021/08/15 03:21:40;;;;;;;8.18;5.75;;;;;;;19.56;57.30;99950.53;5051189;28;20036;-50
2021/08/15 03:24:06;;;;;;;13.43;5.60;;;;;;;19.63;57.42;99957.78;5051272;28;20029;-49
2021/08/15 03:26:32;;;;;;;9.95;5.80;;;;;;;19.71;56.53;99954.19;5050582;28;20029;-51
2021/08/15 03:28:58;;;;;;;10.30;5.65;;;;;;;19.80;56.24;99954.97;5051210;28;20052;-53
2021/08/15 03:31:24;;;;;;;10.27;5.78;;;;;;;19.89;55.44;99943.00;5051201;28;20041;-52
2021/08/15 03:33:50;;;;;;;11.15;5.53;;;;;;;20.00;54.87;99941.75;5051405;28;20532;-52
2021/08/15 03:36:16;;;;;;;8.48;6.13;;;;;;;20.17;54.37;99941.63;5050798;28;20432;-49
2021/08/15 03:38:41;;;;;;;7.97;6.18;;;;;;;20.28;54.02;99937.59;5051109;28;20025;-51
2021/08/15 03:41:07;;;;;;;11.15;5.93;;;;;;;20.43;54.03;99941.19;5051266;28;20033;-51
2021/08/15 03:43:32;;;;;;;7.95;5.65;;;;;;;20.51;53.57;99935.66;5051210;28;20029;-54
2021/08/15 03:45:58;;;;;;;9.30;6.10;;;;;;;20.71;52.95;99932.38;5050993;28;20119;-52
2021/08/15 03:48:23;;;;;;;9.95;6.78;;;;;;;20.98;51.73;99934.66;5051200;28;20029;-51
2021/08/15 03:50:49;;;;;;;11.93;6.35;;;;;;;21.75;49.75;99937.84;5051142;28;20033;-54
2021/08/15 03:53:15;;;;;;;8.95;6.10;;;;;;;22.91;46.82;99924.88;5050974;28;20029;-54
2021/08/15 03:55:40;;;;;;;7.97;5.70;;;;;;;24.13;43.26;99912.34;5050693;28;20035;-51
2021/08/15 03:58:06;;;;;;;7.88;5.20;;;;;;;25.14;40.98;99925.81;5050655;28;20037;-51
2021/08/15 04:00:32;;;;;;;8.98;5.13;;;;;;;25.91;39.26;99920.28;5051095;28;20111;-57
2021/08/15 04:02:58;;;;;;;8.60;4.63;;;;;;;26.58;37.42;99923.53;5050023;28;20057;-54
2021/08/15 04:05:23;;;;;;;7.07;5.03;;;;;;;27.34;35.98;99921.34;5050904;28;20052;-55
2021/08/15 04:07:49;;;;;;;7.72;4.97;;;;;;;28.42;33.90;99911.41;5049258;28;20033;-54
2021/08/15 04:10:15;;;;;;;7.72;4.93;;;;;;;29.46;32.08;99905.34;5051252;28;20032;-54
2021/08/15 04:12:41;;;;;;;5.80;4.63;;;;;;;30.42;29.93;99906.38;5050599;28;20033;-54
2021/08/15 04:15:07;;;;;;;7.95;4.90;;;;;;;31.18;28.74;99915.09;5050520;28;20032;-54
2021/08/15 04:17:32;;;;;;;6.18;4.40;;;;;;;31.95;27.36;99911.44;5050211;28;20041;-56
2021/08/15 04:19:58;;;;;;;6.93;4.68;;;;;;;32.58;26.30;99905.25;5050617;28;20163;-56
2021/08/15 04:22:23;;;;;;;7.05;4.47;;;;;;;32.87;25.95;99913.94;5050852;28;20178;-52
2021/08/15 04:24:49;;;;;;;5.07;4.32;;;;;;;33.30;25.04;99904.69;5050674;28;20215;-51
2021/08/15 04:27:14;;;;;;;6.93;5.00;;;;;;;33.68;24.46;99904.50;5050289;28;20533;-49
2021/08/15 04:29:40;;;;;;;6.70;4.28;;;;;;;34.03;23.88;99883.44;5050606;28;20528;-49
2021/08/15 04:32:07;;;;;;;5.63;4.50;;;;;;;34.55;23.38;99909.16;5050665;28;20040;-51
2021/08/15 04:34:33;;;;;;;6.68;4.93;;;;;;;35.04;22.42;99901.22;5052727;28;20025;-53
2021/08/15 04:36:58;;;;;;;10.00;4.25;;;;;;;35.85;21.07;99906.53;5054136;28;20025;-51
2021/08/15 04:39:24;;;;;;;6.88;4.28;;;;;;;36.56;20.21;99899.75;5054014;28;20032;-53
2021/08/15 04:41:49;;;;;;;6.32;3.88;;;;;;;37.06;19.76;99897.44;5053176;28;20025;-48
2021/08/15 04:44:15;;;;;;;6.68;3.90;;;;;;;37.57;19.09;99897.84;5053919;28;20025;-53
2021/08/15 04:46:40;;;;;;;5.63;3.40;;;;;;;37.86;18.79;99891.25;5053884;28;20037;-49
2021/08/15 04:49:06;;;;;;;4.63;3.88;;;;;;;38.10;18.17;99892.22;5053823;28;20040;-51
2021/08/15 04:51:31;;;;;;;5.78;3.83;;;;;;;38.59;17.91;99896.34;5054128;28;20033;-53
2021/08/15 04:53:57;;;;;;;3.97;3.17;;;;;;;39.11;17.45;99888.84;5053353;28;20037;-51
2021/08/15 04:56:22;;;;;;;3.75;3.45;;;;;;;39.40;16.60;99882.84;5053550;28;20036;-51
2021/08/15 04:58:47;;;;;;;3.90;3.50;;;;;;;39.73;16.35;99878.97;5053546;28;20112;-52
2021/08/15 05:01:13;;;;;;;5.60;3.67;;;;;;;39.81;16.39;99886.63;5053547;28;20033;-50
2021/08/15 05:03:38;;;;;;;4.63;3.22;;;;;;;39.89;15.89;99868.19;5053777;28;20037;-51
2021/08/15 05:06:04;;;;;;;4.53;3.28;;;;;;;40.23;15.60;99883.56;5053835;28;20101;-52
2021/08/15 05:08:30;;;;;;;3.60;3.30;;;;;;;40.50;15.48;99892.09;5053529;28;20036;-52
2021/08/15 05:10:58;;;;;;;3.65;3.35;;;;;;;40.81;15.03;99891.22;5053972;28;20043;-56
2021/08/15 05:13:25;;;;;;;6.78;3.58;;;;;;;41.04;14.83;99881.53;5053312;28;20029;-52
2021/08/15 05:15:50;;;;;;;6.22;3.25;;;;;;;41.32;14.56;99883.19;5053542;28;20068;-54
2021/08/15 05:18:16;;;;;;;5.55;3.20;;;;;;;41.64;14.45;99880.22;5052329;28;20473;-50
2021/08/15 05:20:41;;;;;;;4.32;3.60;;;;;;;41.99;13.95;99880.16;5052341;28;20048;-48
2021/08/15 05:23:07;;;;;;;4.65;3.40;;;;;;;42.67;13.37;99881.41;5053354;28;20040;-53
2021/08/15 05:25:32;;;;;;;5.70;3.53;;;;;;;43.27;12.64;99875.66;5053289;28;20040;-49
2021/08/15 05:27:58;;;;;;;4.78;3.38;;;;;;;43.32;13.01;99875.50;5053066;28;20099;-52
2021/08/15 05:30:24;;;;;;;4.07;3.58;;;;;;;42.94;13.41;99870.81;5053069;28;20041;-52
2021/08/15 05:32:50;;;;;;;3.67;3.38;;;;;;;43.13;12.96;99859.88;5052823;28;20105;-52
2021/08/15 05:35:15;;;;;;;3.15;2.85;;;;;;;43.82;12.35;99853.97;5053158;28;20033;-53
2021/08/15 05:37:41;;;;;;;4.00;3.60;;;;;;;44.48;12.25;99850.50;5053298;28;20025;-53
2021/08/15 05:40:08;;;;;;;5.22;3.28;;;;;;;44.95;11.29;99863.28;5052611;28;20029;-55
2021/08/15 05:42:34;;;;;;;5.93;3.67;;;;;;;45.50;10.79;99851.59;5052417;28;20032;-49
2021/08/15 05:44:59;;;;;;;6.38;3.60;;;;;;;45.86;10.33;99846.91;5052772;28;20384;-53
2021/08/15 05:47:24;;;;;;;4.20;3.65;;;;;;;46.11;10.14;99844.78;5052938;28;20469;-52
2021/08/15 05:49:50;;;;;;;4.63;3.60;;;;;;;46.68;10.05;99849.38;5052474;28;20033;-53
2021/08/15 05:52:16;;;;;;;5.53;3.30;;;;;;;46.81;9.67;99850.06;5052611;28;20103;-51
2021/08/15 05:54:41;;;;;;;7.07;3.63;;;;;;;47.17;9.45;99850.84;5052777;28;20066;-53
2021/08/15 05:57:07;;;;;;;6.75;3.50;;;;;;;47.69;8.93;99836.47;5053195;28;20033;-54
2021/08/15 05:59:34;;;;;;;4.55;3.20;;;;;;;48.28;8.78;99844.81;5052676;28;20032;-51
2021/08/15 06:02:00;;;;;;;5.47;3.25;;;;;;;48.91;8.46;99839.66;5052488;28;20033;-53
2021/08/15 06:04:25;;;;;;;7.25;3.70;;;;;;;49.10;8.13;99829.31;5052377;28;20031;-53
2021/08/15 06:06:50;;;;;;;3.75;3.45;;;;;;;49.65;7.75;99837.28;5052361;28;20029;-53
2021/08/15 06:09:16;;;;;;;5.53;3.17;;;;;;;50.18;7.12;99841.00;5051950;28;20029;-52
2021/08/15 06:11:41;;;;;;;5.03;3.50;;;;;;;50.15;7.41;99840.97;5052169;28;20116;-54
2021/08/15 06:14:07;;;;;;;5.88;3.80;;;;;;;50.11;7.50;99835.28;5052588;28;20045;-52
2021/08/15 06:16:32;;;;;;;5.82;3.65;;;;;;;50.04;7.41;99823.81;5052313;28;20025;-51
2021/08/15 06:18:58;;;;;;;6.53;3.57;;;;;;;50.24;6.89;99824.41;5051997;28;20552;-51
2021/08/15 06:21:23;;;;;;;4.53;4.18;;;;;;;50.16;7.15;99820.66;5052007;28;20337;-55
2021/08/15 06:23:49;;;;;;;4.63;3.67;;;;;;;50.33;7.12;99827.72;5052023;28;20033;-53
2021/08/15 06:26:16;;;;;;;4.28;3.35;;;;;;;50.45;7.09;99837.16;5052126;28;20080;-54
2021/08/15 06:28:41;;;;;;;4.60;3.65;;;;;;;50.66;7.04;99830.78;5051783;28;20072;-55
2021/08/15 06:31:07;;;;;;;4.57;3.83;;;;;;;50.71;6.78;99826.75;5052322;28;20180;-51
2021/08/15 06:33:32;;;;;;;5.50;3.83;;;;;;;50.30;7.25;99819.16;5051620;28;20457;-54
2021/08/15 06:35:57;;;;;;;5.50;4.20;;;;;;;50.21;7.14;99819.47;5051225;28;20484;-53
2021/08/15 06:38:23;;;;;;;5.07;3.78;;;;;;;50.37;6.97;99822.84;5051598;28;20771;-52
2021/08/15 06:40:48;;;;;;;4.95;3.78;;;;;;;50.68;6.85;99823.47;5051148;28;20035;-47
2021/08/15 06:43:14;;;;;;;4.80;4.07;;;;;;;50.89;6.88;99826.81;5050980;28;20074;-50
2021/08/15 06:45:40;;;;;;;4.75;4.00;;;;;;;50.79;6.85;99829.22;5051154;28;20108;-52
2021/08/15 06:48:06;;;;;;;4.97;4.25;;;;;;;50.51;6.80;99809.91;5051391;28;20436;-53
2021/08/15 06:50:32;;;;;;;7.25;4.22;;;;;;;50.49;7.02;99810.31;5051454;28;20043;-51
2021/08/15 06:52:58;;;;;;;5.60;4.20;;;;;;;50.40;7.47;99801.31;5051557;28;20025;-54
2021/08/15 06:55:23;;;;;;;4.90;4.45;;;;;;;50.39;7.21;99794.78;5051409;28;20040;-53
2021/08/15 06:57:49;;;;;;;4.97;4.20;;;;;;;50.98;6.73;99802.44;5051149;28;20067;-55
2021/08/15 07:00:15;;;;;;;5.38;4.45;;;;;;;51.41;6.38;99800.97;5051074;28;20029;-55
2021/08/15 07:02:43;;;;;;;6.05;4.90;;;;;;;51.50;7.16;99806.28;5051270;28;20078;-53
2021/08/15 07:05:10;;;;;;;5.95;4.82;;;;;;;51.88;6.47;99803.03;5051767;28;20473;-53
2021/08/15 07:07:36;;;;;;;6.88;4.40;;;;;;;51.25;6.70;99818.41;5050949;28;20029;-52
2021/08/15 07:10:03;;;;;;;5.15;4.65;;;;;;;51.29;6.86;99804.16;5050903;28;20035;-49
2021/08/15 07:12:29;;;;;;;7.03;4.70;;;;;;;51.20;6.67;99801.69;5051021;28;20043;-55
2021/08/15 07:14:54;;;;;;;5.03;4.53;;;;;;;50.79;6.75;99788.50;5051238;28;20029;-58
2021/08/15 07:17:20;;;;;;;4.57;4.20;;;;;;;50.63;7.00;99791.69;5047901;28;20037;-52
2021/08/15 07:19:46;;;;;;;8.37;4.47;;;;;;;50.61;7.25;99777.84;5051174;28;20427;-55
2021/08/15 07:22:11;;;;;;;5.40;4.20;;;;;;;51.24;6.98;99777.66;5051552;28;20262;-54
2021/08/15 07:24:37;;;;;;;6.10;4.72;;;;;;;51.93;6.29;99780.59;5049802;28;20092;-52
2021/08/15 07:27:03;;;;;;;4.43;4.03;;;;;;;52.56;5.87;99784.97;5050956;28;20060;-56
2021/08/15 07:29:28;;;;;;;6.53;4.30;;;;;;;52.87;5.82;99782.44;5050791;28;20044;-56
2021/08/15 07:31:53;;;;;;;6.05;5.13;;;;;;;53.16;5.63;99779.44;5051418;28;20068;-55
2021/08/15 07:34:20;;;;;;;10.70;4.90;;;;;;;53.28;5.71;99763.84;5051046;28;20409;-59
2021/08/15 07:36:46;;;;;;;6.82;4.57;;;;;;;52.93;5.90;99785.66;5050991;28;20282;-56
2021/08/15 07:39:12;;;;;;;6.93;4.50;;;;;;;52.53;5.74;99794.38;5051035;28;20036;-58
2021/08/15 07:41:38;;;;;;;6.35;4.90;;;;;;;52.13;5.70;99787.97;5051092;28;20021;-51
2021/08/15 07:44:04;;;;;;;6.10;4.88;;;;;;;51.39;6.51;99789.94;5050929;28;20441;-50
2021/08/15 07:46:30;;;;;;;4.90;4.50;;;;;;;50.94;6.52;99784.53;5050384;28;20378;-55
2021/08/15 07:48:57;;;;;;;5.13;4.68;;;;;;;51.06;6.48;99797.59;5050850;28;20036;-52
2021/08/15 07:51:23;;;;;;;6.95;4.00;;;;;;;51.22;6.16;99782.97;5050959;28;20025;-55
2021/08/15 07:53:48;;;;;;;5.85;4.30;;;;;;;51.10;6.87;99772.75;5050890;28;20098;-53
2021/08/15 07:56:14;;;;;;;5.97;4.78;;;;;;;51.24;6.42;99783.38;5050793;28;20032;-60
2021/08/15 07:58:39;;;;;;;7.05;4.47;;;;;;;50.68;6.74;99777.06;5050836;28;20025;-54
2021/08/15 08:01:05;;;;;;;5.70;4.22;;;;;;;50.01;6.96;99768.50;5049494;28;20544;-60
2021/08/15 08:03:30;;;;;;;5.05;4.32;;;;;;;49.24;7.52;99772.69;5050068;28;20037;-59
2021/08/15 08:05:56;;;;;;;4.95;3.92;;;;;;;48.37;8.32;99771.53;5048867;28;20039;-55
2021/08/15 08:08:21;;;;;;;6.75;3.65;;;;;;;47.45;8.23;99772.44;5048576;28;20117;-57
2021/08/15 08:10:49;;;;;;;4.65;4.22;;;;;;;46.05;9.49;99778.28;5053315;28;20473;-54
2021/08/15 08:13:15;;;;;;;8.30;4.00;;;;;;;44.63;11.04;99765.13;5054232;28;20540;-56
2021/08/15 08:15:41;;;;;;;7.28;3.78;;;;;;;43.57;11.98;99766.50;5054529;28;20029;-53
2021/08/15 08:18:08;;;;;;;4.65;3.42;;;;;;;41.82;12.98;99772.22;5054088;28;20068;-51
2021/08/15 08:20:36;;;;;;;3.97;3.58;;;;;;;39.59;14.52;99759.41;5054155;28;20047;-56
2021/08/15 08:23:05;;;;;;;5.28;3.70;;;;;;;37.80;16.73;99769.50;5054221;28;20362;-57
2021/08/15 08:25:31;;;;;;;8.70;3.78;;;;;;;36.35;17.98;99755.84;5054137;28;20029;-55
2021/08/15 08:27:57;;;;;;;5.88;4.10;;;;;;;35.32;19.45;99763.28;5053983;28;20048;-53
2021/08/15 08:30:22;;;;;;;9.65;3.80;;;;;;;34.57;20.60;99764.34;5053889;28;20029;-52
2021/08/15 08:32:48;;;;;;;4.32;3.40;;;;;;;33.83;21.74;99757.34;5054092;28;20124;-55
2021/08/15 08:35:13;;;;;;;6.63;3.53;;;;;;;33.10;22.63;99745.44;5054077;28;20025;-54
2021/08/15 08:37:39;;;;;;;4.30;3.40;;;;;;;32.77;22.97;99767.81;5053538;28;20025;-55
2021/08/15 08:40:05;;;;;;;6.60;4.18;;;;;;;32.47;23.71;99760.28;5052361;28;20067;-56
2021/08/15 08:42:31;;;;;;;4.93;3.33;;;;;;;32.25;24.03;99757.66;5053029;28;20096;-57
2021/08/15 08:45:02;;;;;;;7.88;3.90;;;;;;;32.17;23.77;99762.59;5052750;28;20407;-60
2021/08/15 08:47:30;;;;;;;5.63;3.97;;;;;;;32.01;24.18;99747.88;5052905;28;20029;-61
2021/08/15 08:49:57;;;;;;;4.65;3.33;;;;;;;31.82;24.38;99741.91;5052872;28;20033;-57
2021/08/15 08:52:25;;;;;;;6.25;3.85;;;;;;;31.70;24.98;99755.13;5052835;28;20029;-58
2021/08/15 08:54:51;;;;;;;6.25;3.55;;;;;;;31.33;25.83;99721.66;5052411;28;20449;-58
2021/08/15 08:57:17;;;;;;;6.88;3.90;;;;;;;31.27;26.13;99717.19;5052993;28;20032;-61
2021/08/15 08:59:42;;;;;;;5.90;3.50;;;;;;;31.35;25.64;99730.53;5052780;28;20040;-63
2021/08/15 09:02:08;;;;;;;6.63;4.00;;;;;;;31.16;26.49;99724.53;5052884;28;20104;-63
2021/08/15 09:04:34;;;;;;;8.95;3.90;;;;;;;30.94;26.79;99724.63;5052664;28;20475;-54
2021/08/15 09:07:23;;;;;;;7.07;4.15;;;;;;;30.96;26.34;99725.19;5051908;28;20043;-58
2021/08/15 09:09:57;;;;;;;7.00;3.95;;;;;;;30.86;27.18;99727.84;5052158;28;20033;-64
2021/08/15 09:12:36;;;;;;;8.80;3.90;;;;;;;30.79;26.08;99723.38;5052236;28;20107;-59
2021/08/15 09:15:14;;;;;;;5.28;4.10;;;;;;;30.52;26.81;99723.34;5052278;28;20079;-60
2021/08/15 09:17:41;;;;;;;7.40;3.80;;;;;;;30.11;27.91;99714.56;5052368;28;20059;-59
2021/08/15 09:20:09;;;;;;;7.18;3.70;;;;;;;29.99;28.45;99709.16;5052184;28;20033;-59
2021/08/15 09:22:35;;;;;;;8.30;3.92;;;;;;;29.90;28.15;99698.56;5052396;28;20036;-59
2021/08/15 09:25:12;;;;;;;5.75;3.80;;;;;;;29.91;27.68;99703.00;5051461;28;20029;-59
2021/08/15 09:27:55;;;;;;;4.72;3.55;;;;;;;29.59;28.30;99705.56;5050637;28;20060;-60
2021/08/15 09:30:28;;;;;;;5.07;3.67;;;;;;;29.31;28.84;99694.38;5051353;28;20045;-58
2021/08/15 09:32:53;;;;;;;4.35;3.70;;;;;;;29.01;29.39;99698.31;5051856;28;20037;-61
2021/08/15 09:35:30;;;;;;;6.10;3.45;;;;;;;28.91;29.29;99701.72;5044948;28;20032;-60
2021/08/15 09:38:17;;;;;;;5.72;3.50;;;;;;;28.96;28.54;99684.44;5038165;28;20033;-62
2021/08/15 09:40:42;;;;;;;4.55;3.67;;;;;;;28.63;30.20;99684.13;5041926;28;20034;-60
2021/08/15 09:43:19;;;;;;;3.95;3.55;;;;;;;28.57;30.32;99684.25;5032945;28;20553;-58
2021/08/15 09:45:50;;;;;;;8.05;3.50;;;;;;;28.52;30.09;99676.72;5032794;28;20029;-66
2021/08/15 09:48:21;;;;;;;4.60;3.67;;;;;;;28.46;30.76;99673.06;5031636;28;20037;-55
2021/08/15 09:51:22;;;;;;;4.72;3.78;;;;;;;28.62;30.34;99676.94;5032576;28;20539;-68
2021/08/15 09:53:56;;;;;;;3.60;3.17;;;;;;;28.57;29.88;99668.56;5032558;28;20057;-54
2021/08/15 09:56:51;;;;;;;6.72;3.72;;;;;;;28.73;29.48;99653.16;5032966;28;20041;-54
2021/08/15 09:59:22;;;;;;;5.07;3.85;;;;;;;28.64;29.99;99662.91;5027199;28;20477;-54
2021/08/15 10:01:53;;;;;;;6.57;3.97;;;;;;;28.62;30.26;99656.81;5032767;28;20056;-56
2021/08/15 10:04:21;;;;;;;4.25;3.58;;;;;;;28.67;30.50;99656.06;5032481;28;20407;-53
2021/08/15 10:06:50;;;;;;;7.95;3.90;;;;;;;28.72;30.43;99646.00;5033457;28;20524;-52
2021/08/15 10:09:18;;;;;;;7.25;3.80;;;;;;;28.66;30.76;99644.22;5051457;28;20033;-54
2021/08/15 10:11:43;;;;;;;5.05;3.78;;;;;;;28.72;30.73;99637.72;5051952;28;20116;-55
2021/08/15 10:14:11;;;;;;;9.27;4.00;;;;;;;28.85;30.16;99646.75;5051724;28;20114;-55
2021/08/15 10:16:40;;;;;;;7.90;4.63;;;;;;;28.86;30.30;99642.94;5051997;28;20029;-55
2021/08/15 10:19:09;;;;;;;6.35;4.05;;;;;;;28.99;29.95;99634.34;5051700;28;20029;-57
2021/08/15 10:21:46;;;;;;;8.43;4.43;;;;;;;29.24;29.44;99635.81;5051903;28;20040;-54
2021/08/15 10:24:13;;;;;;;5.57;3.60;;;;;;;29.25;29.82;99629.22;5051599;28;20487;-58
2021/08/15 10:26:50;;;;;;;7.95;4.18;;;;;;;29.29;29.33;99615.75;5051220;28;20033;-53
2021/08/15 10:29:45;;;;;;;4.43;4.03;;;;;;;29.41;29.07;99633.06;5051883;28;20036;-55
2021/08/15 10:32:22;;;;;;;4.65;3.70;;;;;;;29.47;29.45;99634.78;5050296;28;20041;-54
2021/08/15 10:34:50;;;;;;;7.15;4.03;;;;;;;29.48;29.52;99627.38;5052086;28;20037;-58
2021/08/15 10:37:24;;;;;;;5.28;4.20;;;;;;;29.46;29.20;99619.34;5050669;28;20028;-53
2021/08/15 10:40:04;;;;;;;6.20;3.90;;;;;;;29.20;30.49;99620.88;5050553;28;20040;-52
2021/08/15 10:42:39;;;;;;;8.60;4.15;;;;;;;29.25;29.67;99611.81;5051178;28;20376;-52
2021/08/15 10:45:13;;;;;;;7.75;3.95;;;;;;;29.15;30.40;99618.88;5051326;28;20496;-50
2021/08/15 10:47:39;;;;;;;6.15;3.95;;;;;;;29.12;30.40;99611.09;5050809;28;20397;-50
2021/08/15 10:50:07;;;;;;;7.78;4.18;;;;;;;29.01;30.35;99618.38;5051604;28;20401;-52
2021/08/15 10:52:40;;;;;;;4.38;3.97;;;;;;;29.00;30.25;99610.34;5049154;28;20428;-50
2021/08/15 10:55:14;;;;;;;5.47;4.85;;;;;;;28.99;30.63;99601.25;5051449;28;20033;-52
2021/08/15 10:57:43;;;;;;;5.63;4.10;;;;;;;29.00;30.54;99608.44;5051731;28;20025;-53
2021/08/15 11:00:30;;;;;;;5.95;4.57;;;;;;;29.14;29.81;99595.16;5051967;28;20029;-52
2021/08/15 11:03:18;;;;;;;7.95;4.30;;;;;;;28.91;30.75;99596.16;5051859;28;20036;-51
2021/08/15 11:05:44;;;;;;;5.78;4.20;;;;;;;28.86;31.00;99588.66;5050238;28;20041;-56
2021/08/15 11:08:32;;;;;;;6.30;4.07;;;;;;;29.18;30.21;99598.25;5051342;28;20044;-55
2021/08/15 11:11:08;;;;;;;7.30;4.40;;;;;;;29.18;30.23;99606.50;5050675;28;20045;-55
2021/08/15 11:13:35;;;;;;;6.80;4.47;;;;;;;28.97;30.76;99608.94;5051626;28;20041;-48
2021/08/15 11:16:25;;;;;;;4.65;4.10;;;;;;;29.18;30.24;99601.00;5051532;28;20474;-49
2021/08/15 11:19:19;;;;;;;6.28;4.35;;;;;;;29.30;30.34;99604.47;5050950;28;20065;-53
2021/08/15 11:22:10;;;;;;;6.40;4.13;;;;;;;29.33;30.24;99609.47;5049792;28;20109;-51
2021/08/15 11:24:45;;;;;;;9.13;3.97;;;;;;;29.26;30.40;99606.06;5051291;28;20041;-51
2021/08/15 11:27:12;;;;;;;;;;;;;;;29.56;29.19;99595.75;5051325;28;20045;-50
2021/08/15 11:29:38;;;;;;;7.15;4.13;;;;;;;29.22;30.46;99575.41;5051461;28;19966;-50
2021/08/15 11:32:04;;;;;;;6.03;4.38;;;;;;;29.40;30.10;99586.38;5051566;28;20094;-49
2021/08/15 11:34:30;;;;;;;6.07;4.20;;;;;;;29.55;30.50;99577.53;5051274;28;20115;-51
2021/08/15 11:36:57;;;;;;;8.02;4.70;;;;;;;29.70;29.66;99580.47;5051055;28;20116;-54